Time;durP1;ratioP1;P1;durP2;ratioP2;P2;SDS_P1;SDS_P2;PMS_P1;PMS_P2;Temp;Humidity;BMP_temperature;BMP_pressure;BME280_temperature;BME280_humidity;BME280_pressure;Samples;Min_cycle;Max_cycle;Signal;HPM_P1;HPM_P2
2023/01/26 00:00:54;;;;;;;91.80;25.35;;;0.80;99.90;;;;;;4984049;28;20042;-72
2023/01/26 00:03:21;;;;;;;75.38;23.15;;;0.70;99.90;;;;;;4987196;28;20049;-73
2023/01/26 00:05:47;;;;;;;75.90;24.20;;;0.80;99.90;;;;;;4988488;28;20090;-72
2023/01/26 00:08:12;;;;;;;80.28;23.25;;;0.80;99.90;;;;;;4987776;28;20051;-71
2023/01/26 00:10:40;;;;;;;84.32;25.20;;;0.80;99.90;;;;;;4987827;28;20034;-72
2023/01/26 00:13:07;;;;;;;79.45;23.80;;;0.70;99.90;;;;;;4986388;28;20109;-73
2023/01/26 00:15:34;;;;;;;76.63;23.48;;;0.70;99.90;;;;;;4987400;28;20034;-73
2023/01/26 00:18:00;;;;;;;82.88;24.13;;;0.70;99.90;;;;;;4986113;28;20042;-72
2023/01/26 00:20:27;;;;;;;73.57;21.27;;;0.70;99.90;;;;;;4981827;28;20039;-73
2023/01/26 00:22:53;;;;;;;83.50;24.02;;;0.70;99.90;;;;;;4987930;28;20034;-72
2023/01/26 00:25:18;;;;;;;77.75;22.75;;;0.70;99.90;;;;;;4985156;28;20038;-72
2023/01/26 00:27:44;;;;;;;76.38;24.13;;;0.70;99.90;;;;;;4986054;28;20114;-72
2023/01/26 00:30:10;;;;;;;73.18;24.38;;;0.70;99.90;;;;;;4987369;28;20097;-71
2023/01/26 00:32:36;;;;;;;73.78;22.83;;;0.70;99.90;;;;;;4986750;28;20046;-73
2023/01/26 00:35:03;;;;;;;77.82;23.20;;;0.70;99.90;;;;;;4986088;28;20037;-72
2023/01/26 00:37:29;;;;;;;69.93;23.77;;;0.70;99.90;;;;;;4991608;28;20042;-72
2023/01/26 00:39:54;;;;;;;73.00;21.42;;;0.70;99.90;;;;;;4989907;28;20532;-72
2023/01/26 00:42:21;;;;;;;66.43;22.25;;;0.70;99.90;;;;;;4990298;28;20070;-71
2023/01/26 00:44:47;;;;;;;76.10;22.33;;;0.80;99.90;;;;;;5005504;28;20030;-73
2023/01/26 00:47:13;;;;;;;73.80;21.35;;;0.70;99.90;;;;;;4989204;28;20744;-71
2023/01/26 00:49:39;;;;;;;68.47;22.83;;;0.70;99.90;;;;;;5001483;28;20060;-71
2023/01/26 00:52:05;;;;;;;73.68;21.70;;;0.70;99.90;;;;;;5005681;28;20124;-72
2023/01/26 00:54:31;;;;;;;69.10;20.15;;;0.80;99.90;;;;;;4990741;28;20050;-71
2023/01/26 00:56:57;;;;;;;84.55;23.02;;;0.70;99.90;;;;;;4989637;28;20561;-72
2023/01/26 00:59:23;;;;;;;65.57;20.08;;;0.70;99.90;;;;;;4988703;28;20027;-71
2023/01/26 01:01:49;;;;;;;60.63;18.33;;;0.70;99.90;;;;;;4985476;28;20038;-72
2023/01/26 01:04:15;;;;;;;64.43;19.02;;;0.70;99.90;;;;;;4990529;28;20182;-72
2023/01/26 01:06:41;;;;;;;67.57;19.33;;;0.80;99.90;;;;;;4990613;28;20721;-71
2023/01/26 01:09:07;;;;;;;63.53;20.52;;;0.80;99.90;;;;;;4989268;28;20121;-72
2023/01/26 01:11:32;;;;;;;63.83;19.98;;;0.80;99.90;;;;;;4986974;28;20058;-72
2023/01/26 01:13:58;;;;;;;65.10;19.75;;;0.80;99.90;;;;;;4988673;28;20073;-74
2023/01/26 01:16:24;;;;;;;68.63;21.67;;;0.80;99.90;;;;;;4988917;28;20402;-72
2023/01/26 01:18:53;;;;;;;76.07;20.00;;;0.80;99.90;;;;;;4991049;28;20030;-73
2023/01/26 01:21:19;;;;;;;69.10;22.17;;;0.70;99.90;;;;;;4988033;28;20042;-73
2023/01/26 01:23:45;;;;;;;63.63;18.58;;;0.70;99.90;;;;;;4989381;28;20053;-72
2023/01/26 01:26:11;;;;;;;64.78;20.30;;;0.80;99.90;;;;;;4990565;28;20030;-72
2023/01/26 01:28:37;;;;;;;70.10;20.33;;;0.70;99.90;;;;;;4985756;28;20049;-73
2023/01/26 01:31:08;;;;;;;67.97;18.45;;;0.70;99.90;;;;;;4989859;28;20501;-72
2023/01/26 01:33:33;;;;;;;64.63;21.40;;;0.70;99.90;;;;;;4989022;28;20144;-72
2023/01/26 01:36:09;;;;;;;69.97;21.48;;;0.70;99.90;;;;;;4988722;28;20129;-72
2023/01/26 01:38:35;;;;;;;63.10;20.70;;;0.70;99.90;;;;;;4989904;28;20154;-72
2023/01/26 01:41:01;;;;;;;73.03;19.50;;;0.70;99.90;;;;;;4984301;28;20039;-73
2023/01/26 01:43:27;;;;;;;71.57;20.05;;;0.80;99.90;;;;;;4985157;28;20042;-72
2023/01/26 01:45:54;;;;;;;67.70;20.08;;;0.80;99.90;;;;;;4988900;28;20041;-72
2023/01/26 01:48:44;;;;;;;67.22;18.85;;;0.70;99.90;;;;;;4987453;28;20045;-71
2023/01/26 01:51:18;;;;;;;68.20;20.63;;;0.70;99.90;;;;;;4985387;28;20081;-71
2023/01/26 01:53:49;;;;;;;63.20;20.52;;;0.70;99.90;;;;;;4985677;28;20034;-73
2023/01/26 01:56:20;;;;;;;65.90;19.20;;;0.70;99.90;;;;;;4989681;28;20042;-72
2023/01/26 01:58:49;;;;;;;58.00;19.60;;;0.70;99.90;;;;;;4990179;28;20043;-72
2023/01/26 02:01:15;;;;;;;67.47;19.95;;;0.70;99.90;;;;;;4985899;28;20034;-72
2023/01/26 02:03:42;;;;;;;63.58;19.20;;;0.70;99.90;;;;;;4990933;28;20403;-71
2023/01/26 02:06:14;;;;;;;66.28;18.08;;;0.70;99.90;;;;;;4989532;28;20038;-72
2023/01/26 02:08:47;;;;;;;57.65;18.35;;;0.70;99.90;;;;;;4986709;28;20041;-71
2023/01/26 02:11:17;;;;;;;67.25;20.45;;;0.70;99.90;;;;;;4988739;28;20498;-71
2023/01/26 02:13:45;;;;;;;60.67;18.88;;;0.70;99.90;;;;;;4989406;28;20066;-72
2023/01/26 02:16:10;;;;;;;61.78;19.70;;;0.70;99.90;;;;;;4983280;28;20037;-71
2023/01/26 02:18:36;;;;;;;66.50;18.75;;;0.80;99.90;;;;;;4988126;28;20439;-72
2023/01/26 02:21:08;;;;;;;60.40;20.27;;;0.80;99.90;;;;;;4989279;28;20402;-72
2023/01/26 02:23:53;;;;;;;59.33;20.25;;;0.80;99.90;;;;;;4985822;28;20038;-73
2023/01/26 02:26:21;;;;;;;57.22;17.70;;;0.80;99.90;;;;;;4985156;28;20042;-71
2023/01/26 02:28:48;;;;;;;52.72;17.48;;;0.80;99.90;;;;;;4989762;28;20076;-73
2023/01/26 02:31:14;;;;;;;59.80;18.20;;;0.70;99.90;;;;;;4989454;28;20092;-72
2023/01/26 02:33:41;;;;;;;60.72;17.40;;;0.80;99.90;;;;;;4988789;28;20514;-71
2023/01/26 02:36:15;;;;;;;56.97;17.83;;;0.80;99.90;;;;;;4988164;28;20034;-72
2023/01/26 02:38:43;;;;;;;58.30;18.17;;;0.80;99.90;;;;;;5004020;28;20037;-72
2023/01/26 02:44:07;;;;;;;55.85;17.98;;;0.80;99.90;;;;;;4978393;28;20062;-73
2023/01/26 02:46:33;;;;;;;53.00;17.00;;;0.80;99.90;;;;;;4984835;28;20042;-72
2023/01/26 02:51:43;;;;;;;55.67;18.13;;;0.80;99.90;;;;;;4998693;28;20041;-72
2023/01/26 02:54:08;;;;;;;53.53;15.82;;;0.80;99.90;;;;;;5006759;28;20033;-72
2023/01/26 02:56:38;;;;;;;54.47;15.70;;;0.80;99.90;;;;;;5008482;28;20045;-72
2023/01/26 02:59:05;;;;;;;55.55;17.35;;;0.80;99.90;;;;;;5004267;28;20061;-72
2023/01/26 03:01:31;;;;;;;56.50;18.40;;;0.80;99.90;;;;;;5006548;28;20574;-71
2023/01/26 03:03:56;;;;;;;53.53;18.17;;;0.90;99.90;;;;;;5009002;28;20112;-71
2023/01/26 03:06:22;;;;;;;60.03;18.02;;;0.80;99.90;;;;;;5007633;28;20030;-71
2023/01/26 03:08:47;;;;;;;48.67;16.30;;;0.90;99.90;;;;;;5008482;28;20442;-71
2023/01/26 03:11:13;;;;;;;56.58;16.52;;;0.90;99.90;;;;;;5006625;28;20030;-71
2023/01/26 03:13:38;;;;;;;52.33;16.95;;;0.90;99.90;;;;;;5007733;28;20161;-71
2023/01/26 03:16:09;;;;;;;58.10;16.80;;;0.90;99.90;;;;;;5008235;28;20535;-72
2023/01/26 03:29:33;;;;;;;63.67;17.10;;;0.90;99.90;;;;;;5003935;28;20164;-73
2023/01/26 03:31:58;;;;;;;55.13;18.08;;;0.90;99.90;;;;;;5008235;28;20117;-72
2023/01/26 03:34:25;;;;;;;54.63;17.05;;;0.90;99.90;;;;;;5005614;28;20041;-75
2023/01/26 03:36:50;;;;;;;54.38;16.77;;;1.00;99.90;;;;;;5005585;28;20402;-73
2023/01/26 03:58:39;;;;;;;54.90;17.83;;;1.00;99.90;;;;;;5005462;28;20048;-72
2023/01/26 04:01:05;;;;;;;56.58;19.08;;;1.00;99.90;;;;;;5022123;28;20030;-73
2023/01/26 04:08:59;;;;;;;46.38;15.90;;;1.00;99.90;;;;;;5003984;28;20040;-71
2023/01/26 04:11:25;;;;;;;67.80;20.42;;;1.00;99.90;;;;;;5008945;28;20409;-72
2023/01/26 04:22:03;;;;;;;57.80;18.70;;;1.10;99.90;;;;;;5006441;28;20037;-72
2023/01/26 04:24:28;;;;;;;59.25;16.88;;;1.10;99.90;;;;;;5011962;28;20046;-71
2023/01/26 04:26:54;;;;;;;48.55;16.50;;;1.10;99.90;;;;;;5012715;28;20395;-72
2023/01/26 04:29:19;;;;;;;66.97;17.67;;;1.10;99.90;;;;;;5009317;28;20042;-70
2023/01/26 04:31:45;;;;;;;56.05;17.63;;;1.10;99.90;;;;;;5011056;28;20068;-71
2023/01/26 04:34:13;;;;;;;55.25;16.40;;;1.10;99.90;;;;;;5010044;28;20022;-72
2023/01/26 04:36:39;;;;;;;50.85;15.90;;;1.10;99.90;;;;;;5009163;28;20030;-72
2023/01/26 04:39:05;;;;;;;60.05;17.95;;;1.10;99.90;;;;;;5011174;28;20030;-72
2023/01/26 04:41:31;;;;;;;55.65;16.90;;;1.10;99.90;;;;;;5010961;28;20522;-71
2023/01/26 04:43:57;;;;;;;55.75;16.80;;;1.20;99.90;;;;;;5011063;28;20041;-72
2023/01/26 04:46:23;;;;;;;55.92;16.33;;;1.20;99.90;;;;;;5010046;28;20034;-72
2023/01/26 04:48:49;;;;;;;51.67;16.35;;;1.20;99.90;;;;;;5011309;28;20041;-72
2023/01/26 04:51:18;;;;;;;52.75;16.13;;;1.20;99.90;;;;;;5010866;28;20774;-72
2023/01/26 04:53:44;;;;;;;57.90;15.70;;;1.20;99.90;;;;;;5011222;28;20108;-71
2023/01/26 04:56:22;;;;;;;56.55;16.95;;;1.20;99.90;;;;;;5009597;28;20042;-71
2023/01/26 04:58:47;;;;;;;51.03;16.83;;;1.20;99.90;;;;;;5005492;28;20517;-71
2023/01/26 05:01:13;;;;;;;47.70;14.70;;;1.30;99.90;;;;;;5011066;28;20058;-72
2023/01/26 05:03:38;;;;;;;50.28;15.80;;;1.20;99.90;;;;;;5011922;28;20048;-71
2023/01/26 05:06:04;;;;;;;48.22;16.00;;;1.20;99.90;;;;;;5015221;28;20026;-73
2023/01/26 05:08:30;;;;;;;48.30;15.43;;;1.30;99.90;;;;;;5013264;28;20096;-72
2023/01/26 05:10:55;;;;;;;50.28;15.48;;;1.30;99.90;;;;;;5015782;28;20045;-73
2023/01/26 05:13:21;;;;;;;47.33;14.02;;;1.30;99.90;;;;;;5014487;28;20037;-71
2023/01/26 05:15:47;;;;;;;45.30;16.95;;;1.30;99.90;;;;;;5013984;28;20191;-73
2023/01/26 05:18:12;;;;;;;44.17;15.43;;;1.30;99.90;;;;;;5010722;28;20068;-72
2023/01/26 05:20:38;;;;;;;43.90;15.07;;;1.20;99.90;;;;;;5009909;28;20041;-72
2023/01/26 05:23:04;;;;;;;50.33;15.55;;;1.30;99.90;;;;;;5007007;28;20550;-72
2023/01/26 05:25:30;;;;;;;50.00;15.68;;;1.30;99.90;;;;;;5012789;28;20061;-72
2023/01/26 05:27:55;;;;;;;52.95;15.48;;;1.30;99.90;;;;;;5009045;28;20038;-73
2023/01/26 05:30:21;;;;;;;60.75;17.02;;;1.30;99.90;;;;;;5008905;28;20045;-71
2023/01/26 05:32:47;;;;;;;45.47;16.63;;;1.30;99.90;;;;;;4995362;28;20037;-71
2023/01/26 05:35:12;;;;;;;52.30;15.18;;;1.30;99.90;;;;;;5004862;28;20037;-73
2023/01/26 05:37:40;;;;;;;57.15;16.92;;;1.30;99.90;;;;;;5001522;28;20549;-72
2023/01/26 05:40:07;;;;;;;46.47;15.05;;;1.40;99.90;;;;;;5004743;28;20037;-71
2023/01/26 05:42:33;;;;;;;56.35;17.25;;;1.40;99.90;;;;;;5006316;28;20045;-74
2023/01/26 05:44:58;;;;;;;49.72;14.05;;;1.40;99.90;;;;;;5006381;28;20157;-72
2023/01/26 05:47:24;;;;;;;39.70;14.60;;;1.40;99.90;;;;;;5005162;28;20038;-72
2023/01/26 05:49:50;;;;;;;55.30;17.00;;;1.40;99.90;;;;;;5009934;28;20088;-72
2023/01/26 05:52:18;;;;;;;41.00;14.25;;;1.40;99.90;;;;;;5007833;28;20026;-72
2023/01/26 05:54:43;;;;;;;50.83;15.48;;;1.50;99.90;;;;;;5007986;28;20118;-72
2023/01/26 05:57:09;;;;;;;50.67;16.80;;;1.50;99.90;;;;;;5007773;28;20117;-73
2023/01/26 05:59:35;;;;;;;64.88;17.25;;;1.50;99.90;;;;;;5025703;28;20405;-73
2023/01/26 06:02:01;;;;;;;47.05;15.02;;;1.50;99.90;;;;;;5009451;28;20038;-71
2023/01/26 06:04:26;;;;;;;46.58;15.43;;;1.50;99.90;;;;;;5010945;28;20037;-72
2023/01/26 06:06:53;;;;;;;49.65;15.77;;;1.50;99.90;;;;;;5009323;28;20113;-72
2023/01/26 06:09:19;;;;;;;50.25;15.88;;;1.60;99.90;;;;;;5008531;28;20026;-72
2023/01/26 06:11:45;;;;;;;50.53;14.32;;;1.60;99.90;;;;;;5004989;28;20036;-72
2023/01/26 06:14:11;;;;;;;47.05;14.80;;;1.60;99.90;;;;;;4994297;28;20345;-71
2023/01/26 06:16:36;;;;;;;44.42;14.95;;;1.60;99.90;;;;;;5018442;28;20706;-72
2023/01/26 06:19:02;;;;;;;46.15;15.35;;;1.60;99.90;;;;;;5004707;28;20080;-72
2023/01/26 06:21:29;;;;;;;47.38;14.90;;;1.60;99.90;;;;;;5021008;28;20052;-71
2023/01/26 06:23:54;;;;;;;40.60;13.98;;;1.60;99.90;;;;;;5007087;28;20045;-72
2023/01/26 06:26:20;;;;;;;50.80;15.93;;;1.60;99.90;;;;;;5003286;28;20042;-72
2023/01/26 06:28:46;;;;;;;46.92;14.07;;;1.60;99.90;;;;;;5008113;28;20064;-70
2023/01/26 06:31:11;;;;;;;37.17;12.68;;;1.70;99.90;;;;;;5007158;28;20041;-73
2023/01/26 06:33:37;;;;;;;44.90;13.50;;;1.70;99.90;;;;;;5006804;28;20661;-73
2023/01/26 06:36:05;;;;;;;41.05;13.40;;;1.60;99.90;;;;;;5003061;28;20041;-72
2023/01/26 06:38:31;;;;;;;40.97;12.38;;;1.60;99.90;;;;;;5004609;28;20069;-72
2023/01/26 06:41:06;;;;;;;47.50;14.10;;;1.60;99.90;;;;;;5011297;28;20125;-72
2023/01/26 06:43:33;;;;;;;39.20;12.70;;;1.60;99.90;;;;;;4986924;28;20054;-72
2023/01/26 06:46:00;;;;;;;35.13;11.98;;;1.70;99.90;;;;;;5016767;28;20041;-72
2023/01/26 06:48:26;;;;;;;40.53;13.48;;;1.70;99.90;;;;;;5000357;28;20053;-73
2023/01/26 06:50:55;;;;;;;51.00;15.63;;;1.70;99.90;;;;;;5004341;28;20048;-72
2023/01/26 06:53:32;;;;;;;49.85;14.43;;;1.70;99.90;;;;;;5001481;28;20041;-72
2023/01/26 06:55:58;;;;;;;45.28;13.30;;;1.70;99.90;;;;;;5004707;28;20096;-73
2023/01/26 06:58:23;;;;;;;45.97;15.07;;;1.70;99.90;;;;;;5000828;28;20038;-74
2023/01/26 07:00:49;;;;;;;44.78;15.65;;;1.80;99.90;;;;;;5007451;28;20065;-71
2023/01/26 07:03:15;;;;;;;41.60;13.77;;;1.80;99.90;;;;;;5006542;28;20149;-72
2023/01/26 07:05:40;;;;;;;43.17;13.45;;;1.70;99.90;;;;;;5002832;28;20147;-74
2023/01/26 07:08:07;;;;;;;37.42;12.10;;;1.70;99.90;;;;;;4999613;28;20428;-74
2023/01/26 07:10:34;;;;;;;47.20;13.70;;;1.70;99.90;;;;;;4998790;28;20046;-73
2023/01/26 07:12:59;;;;;;;47.17;13.88;;;1.80;99.90;;;;;;5008032;28;20666;-72
2023/01/26 07:15:25;;;;;;;48.13;13.25;;;1.80;99.90;;;;;;5000867;28;20097;-74
2023/01/26 07:17:50;;;;;;;45.80;12.95;;;1.70;99.90;;;;;;5006013;28;20055;-72
2023/01/26 07:20:16;;;;;;;57.70;15.02;;;1.70;99.90;;;;;;5005380;28;20041;-71
2023/01/26 07:22:42;;;;;;;54.58;16.38;;;1.80;99.90;;;;;;5017609;28;20097;-72
2023/01/26 07:25:07;;;;;;;57.13;14.27;;;1.80;99.90;;;;;;5004564;28;20022;-72
2023/01/26 07:27:33;;;;;;;57.75;15.80;;;1.80;99.90;;;;;;5004365;28;20395;-73
2023/01/26 07:29:59;;;;;;;54.00;13.85;;;1.80;99.90;;;;;;5003025;28;20037;-73
2023/01/26 07:32:24;;;;;;;54.78;14.38;;;1.80;99.90;;;;;;5002461;28;20045;-73
2023/01/26 07:34:50;;;;;;;59.58;16.20;;;1.80;99.90;;;;;;5000064;28;20152;-72
2023/01/26 07:37:15;;;;;;;55.55;14.82;;;1.80;99.90;;;;;;4987905;28;20077;-73
2023/01/26 07:39:41;;;;;;;57.90;14.95;;;1.80;99.90;;;;;;4995487;28;20042;-74
2023/01/26 07:42:09;;;;;;;51.28;13.63;;;1.90;99.90;;;;;;5004187;28;20093;-73
2023/01/26 07:44:34;;;;;;;55.10;14.02;;;1.90;99.90;;;;;;5006452;28;20053;-72
2023/01/26 07:47:00;;;;;;;51.92;14.32;;;1.90;99.90;;;;;;5011460;28;20035;-73
2023/01/26 07:49:25;;;;;;;49.35;13.98;;;2.00;99.90;;;;;;5009608;28;20038;-73
2023/01/26 07:51:52;;;;;;;50.03;16.70;;;2.00;99.90;;;;;;5010034;28;20061;-71
2023/01/26 07:54:20;;;;;;;58.97;15.05;;;2.00;99.90;;;;;;5011946;28;20030;-71
2023/01/26 07:56:46;;;;;;;46.88;13.82;;;2.10;99.90;;;;;;5006155;28;20486;-73
2023/01/26 07:59:11;;;;;;;43.75;11.32;;;2.10;99.90;;;;;;5009844;28;20037;-72
2023/01/26 08:01:38;;;;;;;46.40;12.40;;;2.10;99.90;;;;;;5011487;28;20398;-72
2023/01/26 08:04:04;;;;;;;42.33;13.25;;;2.20;99.90;;;;;;5022000;28;20041;-72
2023/01/26 08:06:29;;;;;;;40.50;12.73;;;2.20;99.90;;;;;;5009506;28;20045;-72
2023/01/26 08:08:55;;;;;;;38.67;11.27;;;2.20;99.90;;;;;;5023881;28;20119;-73
2023/01/26 08:11:23;;;;;;;41.22;12.57;;;2.30;99.90;;;;;;5009941;28;20029;-73
2023/01/26 08:13:48;;;;;;;42.15;11.50;;;2.40;99.90;;;;;;5003158;28;20037;-72
2023/01/26 08:16:14;;;;;;;35.22;9.95;;;2.40;99.90;;;;;;5009747;28;20141;-73
2023/01/26 08:18:45;;;;;;;40.75;10.48;;;2.50;99.90;;;;;;5009421;28;20065;-72
2023/01/26 08:21:12;;;;;;;42.88;10.40;;;2.60;99.90;;;;;;5023647;28;20523;-72
2023/01/26 08:23:38;;;;;;;36.85;10.93;;;2.60;99.90;;;;;;5007805;28;20564;-73
2023/01/26 08:26:06;;;;;;;40.47;12.63;;;2.60;99.90;;;;;;5020733;28;20029;-73
2023/01/26 08:28:33;;;;;;;36.25;8.93;;;2.70;99.90;;;;;;5008235;28;20042;-72
2023/01/26 08:31:07;;;;;;;41.53;9.32;;;2.70;99.90;;;;;;5012823;28;20061;-72
2023/01/26 08:33:34;;;;;;;39.65;8.77;;;2.90;99.90;;;;;;4978106;28;20034;-72
2023/01/26 08:36:01;;;;;;;41.65;9.95;;;3.00;99.90;;;;;;4979975;28;20694;-72
2023/01/26 08:38:29;;;;;;;42.45;7.05;;;3.10;99.90;;;;;;4976565;28;20051;-73
2023/01/26 08:40:55;;;;;;;33.03;8.18;;;3.20;99.90;;;;;;4982098;28;20114;-72
2023/01/26 08:43:20;;;;;;;34.53;6.85;;;3.40;99.90;;;;;;4978159;28;20166;-74
2023/01/26 08:45:46;;;;;;;29.95;4.90;;;3.70;99.90;;;;;;4975884;28;20046;-72
2023/01/26 08:48:12;;;;;;;27.35;4.80;;;3.90;99.90;;;;;;4977612;28;20034;-73
2023/01/26 08:50:38;;;;;;;30.73;4.40;;;4.10;99.90;;;;;;4980738;28;20049;-73
2023/01/26 08:53:03;;;;;;;23.08;4.95;;;4.20;99.90;;;;;;4978058;28;20494;-69
2023/01/26 08:55:29;;;;;;;37.40;4.47;;;4.40;99.90;;;;;;4979291;28;20039;-72
2023/01/26 08:57:55;;;;;;;25.83;3.55;;;4.50;99.90;;;;;;4979733;28;20352;-72
2023/01/26 09:00:21;;;;;;;21.92;2.75;;;4.60;99.90;;;;;;4976331;28;20506;-74
2023/01/26 09:02:48;;;;;;;23.77;4.15;;;4.70;99.90;;;;;;4979302;28;20050;-72
2023/01/26 09:05:13;;;;;;;27.70;5.18;;;4.90;99.90;;;;;;4979439;28;20038;-72
2023/01/26 09:07:39;;;;;;;35.92;4.10;;;5.00;99.90;;;;;;4977456;28;20402;-73
2023/01/26 09:10:05;;;;;;;23.13;3.75;;;5.10;99.90;;;;;;4981413;28;20130;-72
2023/01/26 09:12:31;;;;;;;22.88;3.08;;;5.10;99.90;;;;;;4981596;28;20035;-72
2023/01/26 09:14:57;;;;;;;24.55;2.40;;;5.30;99.90;;;;;;4978662;28;20050;-72
2023/01/26 09:17:22;;;;;;;28.02;3.03;;;5.30;99.90;;;;;;4973947;28;20154;-73
2023/01/26 09:19:48;;;;;;;16.00;2.60;;;5.30;99.90;;;;;;4979866;28;20038;-72
2023/01/26 09:22:13;;;;;;;23.40;1.90;;;5.50;99.90;;;;;;4979350;28;20525;-72
2023/01/26 09:24:39;;;;;;;19.02;2.22;;;5.60;99.90;;;;;;4977758;28;20034;-72
2023/01/26 09:27:04;;;;;;;32.47;3.35;;;5.60;99.90;;;;;;4977815;28;20510;-74
2023/01/26 09:29:30;;;;;;;21.55;2.38;;;5.70;99.90;;;;;;4979328;28;20042;-73
2023/01/26 09:31:55;;;;;;;24.58;3.47;;;5.70;99.90;;;;;;4976415;28;20467;-73
2023/01/26 09:34:24;;;;;;;25.77;4.07;;;5.80;99.90;;;;;;4976065;28;22188;-72
2023/01/26 09:36:49;;;;;;;24.30;3.17;;;5.90;99.90;;;;;;4983182;28;20042;-72
2023/01/26 09:39:15;;;;;;;20.25;2.40;;;5.90;99.90;;;;;;4978590;28;20516;-73
2023/01/26 09:41:50;;;;;;;11.82;3.72;;;5.90;99.90;;;;;;4974316;28;20038;-74
2023/01/26 09:44:25;;;;;;;26.63;3.25;;;5.90;99.90;;;;;;4975932;28;20498;-73
2023/01/26 09:47:10;;;;;;;17.42;1.80;;;6.00;99.90;;;;;;4981562;28;20129;-73
2023/01/26 09:49:44;;;;;;;19.85;2.30;;;6.00;99.90;;;;;;4993970;28;20038;-73
2023/01/26 09:52:29;;;;;;;15.20;2.00;;;6.10;99.90;;;;;;4980386;28;20088;-73
2023/01/26 09:54:58;;;;;;;21.83;2.83;;;6.10;99.90;;;;;;4977451;28;20038;-75
2023/01/26 09:57:32;;;;;;;22.27;2.00;;;6.10;99.90;;;;;;4980599;28;20042;-71
2023/01/26 10:00:27;;;;;;;31.77;5.38;;;6.20;99.90;;;;;;4978894;28;20496;-72
2023/01/26 10:03:36;;;;;;;20.60;3.08;;;6.20;99.90;;;;;;5009366;28;20456;-73
2023/01/26 10:06:25;;;;;;;23.73;2.00;;;6.30;99.90;;;;;;5014500;28;20057;-74
2023/01/26 10:08:53;;;;;;;27.90;2.03;;;6.30;99.90;;;;;;5017990;28;20033;-72
2023/01/26 10:11:42;;;;;;;23.77;3.75;;;6.20;99.90;;;;;;5007134;28;20045;-73
2023/01/26 10:14:20;;;;;;;28.98;2.83;;;6.30;99.90;;;;;;4981550;28;20298;-75
2023/01/26 10:16:51;;;;;;;23.98;3.90;;;6.30;99.90;;;;;;4974465;28;20050;-74
2023/01/26 10:19:37;;;;;;;16.52;2.17;;;6.20;99.90;;;;;;4977711;28;20150;-73
2023/01/26 10:22:12;;;;;;;17.98;2.45;;;6.30;99.90;;;;;;4979642;28;20070;-73
2023/01/26 10:24:38;;;;;;;20.45;2.83;;;6.20;99.90;;;;;;4986770;28;20030;-74
2023/01/26 10:27:10;;;;;;;19.17;3.33;;;6.30;99.90;;;;;;4988587;28;20034;-71
2023/01/26 10:29:36;;;;;;;10.40;2.13;;;6.30;99.90;;;;;;4980246;28;20035;-72
2023/01/26 10:32:02;;;;;;;16.95;2.72;;;6.30;99.90;;;;;;4984214;28;20045;-73
2023/01/26 10:34:28;;;;;;;17.80;2.72;;;6.30;99.90;;;;;;4980722;28;20077;-75
2023/01/26 10:37:20;;;;;;;14.20;2.75;;;6.40;99.90;;;;;;4978795;28;20524;-73
2023/01/26 10:40:06;;;;;;;17.85;3.35;;;6.40;99.90;;;;;;4976849;28;20031;-73
2023/01/26 10:42:34;;;;;;;28.65;2.95;;;6.30;99.90;;;;;;4978082;28;20061;-75
2023/01/26 10:45:03;;;;;;;22.20;2.40;;;6.40;99.90;;;;;;4984901;28;20039;-74
2023/01/26 10:47:29;;;;;;;14.68;1.98;;;6.30;99.90;;;;;;4984347;28;20058;-75
2023/01/26 10:50:21;;;;;;;27.83;4.40;;;6.40;99.90;;;;;;4985090;28;20040;-74
2023/01/26 10:53:00;;;;;;;20.38;4.32;;;6.30;99.90;;;;;;4982504;28;20031;-74
2023/01/26 10:55:27;;;;;;;17.67;2.45;;;6.40;99.90;;;;;;4982717;28;20042;-73
2023/01/26 10:57:53;;;;;;;23.65;2.67;;;6.40;99.90;;;;;;4986442;28;20035;-74
2023/01/26 11:00:33;;;;;;;15.57;2.15;;;6.50;99.90;;;;;;4990268;28;20041;-73
2023/01/26 11:03:03;;;;;;;18.13;3.03;;;6.60;99.90;;;;;;4983874;28;20038;-74
2023/01/26 11:05:29;;;;;;;24.70;2.53;;;6.70;99.90;;;;;;4981403;28;20129;-72
2023/01/26 11:08:01;;;;;;;16.10;1.70;;;6.60;99.90;;;;;;4974454;28;20125;-73
2023/01/26 11:10:37;;;;;;;25.25;3.53;;;6.70;99.90;;;;;;4980345;28;20038;-74
2023/01/26 11:13:20;;;;;;;21.35;3.65;;;7.00;99.90;;;;;;4995868;28;20477;-75
2023/01/26 11:15:48;;;;;;;22.42;2.53;;;7.30;99.90;;;;;;4990077;28;20038;-73
2023/01/26 11:18:31;;;;;;;23.50;3.10;;;7.40;99.90;;;;;;4981733;28;20042;-73
2023/01/26 11:21:10;;;;;;;9.68;1.63;;;7.40;99.90;;;;;;5001054;28;20038;-73
2023/01/26 11:24:28;;;;;;;21.40;3.03;;;7.30;99.90;;;;;;5008573;28;20038;-73
2023/01/26 11:27:25;;;;;;;16.30;2.80;;;7.40;99.90;;;;;;4975086;28;20718;-76
2023/01/26 11:29:59;;;;;;;14.20;2.08;;;7.40;99.90;;;;;;4981461;28;20380;-72
2023/01/26 11:32:56;;;;;;;26.23;1.88;;;7.50;99.90;;;;;;4979070;28;20047;-73
2023/01/26 11:35:39;;;;;;;15.43;1.40;;;7.60;99.90;;;;;;4976490;28;20386;-74
2023/01/26 11:38:05;;;;;;;15.38;1.83;;;7.70;99.90;;;;;;4978924;28;20034;-74
2023/01/26 11:40:40;;;;;;;17.98;2.08;;;7.70;99.90;;;;;;4978778;28;20049;-75
2023/01/26 11:43:18;;;;;;;14.43;2.45;;;7.70;99.90;;;;;;4972136;28;20034;-72
2023/01/26 11:46:03;;;;;;;20.17;2.00;;;7.60;99.90;;;;;;4990224;28;20039;-74
2023/01/26 11:48:44;;;;;;;14.25;1.80;;;7.60;99.90;;;;;;4979638;28;20045;-75
2023/01/26 11:51:35;;;;;;;;;;;7.50;99.90;;;;;;4983082;28;20038;-72
2023/01/26 11:54:38;;;;;;;16.50;2.15;;;7.60;99.90;;;;;;4990089;28;19968;-74
2023/01/26 11:57:11;;;;;;;18.80;1.65;;;7.60;99.90;;;;;;4993392;28;20487;-73
2023/01/26 12:00:11;;;;;;;30.67;3.58;;;7.50;99.90;;;;;;4976206;28;20097;-73
2023/01/26 12:02:37;;;;;;;22.30;3.43;;;7.60;99.90;;;;;;4978189;28;20121;-73
2023/01/26 12:05:14;;;;;;;17.55;2.90;;;7.60;99.90;;;;;;4976842;28;20876;-74
2023/01/26 12:07:53;;;;;;;22.55;1.88;;;7.60;99.90;;;;;;4980831;28;20101;-73
2023/01/26 12:10:29;;;;;;;20.17;2.65;;;7.60;99.90;;;;;;4978376;28;20034;-73
2023/01/26 12:13:09;;;;;;;17.27;2.90;;;7.70;99.90;;;;;;4978851;28;20064;-72
2023/01/26 12:15:38;;;;;;;12.32;1.55;;;7.70;99.90;;;;;;4971405;28;20642;-72
2023/01/26 12:18:30;;;;;;;17.45;2.63;;;7.80;99.90;;;;;;4979537;28;20122;-74
2023/01/26 12:21:05;;;;;;;18.55;1.73;;;7.80;99.90;;;;;;4977566;28;20031;-73
2023/01/26 12:23:50;;;;;;;17.05;2.05;;;7.90;99.90;;;;;;4973602;28;20077;-74
2023/01/26 12:26:22;;;;;;;17.25;2.45;;;7.90;99.90;;;;;;4975364;28;20041;-76
2023/01/26 12:29:16;;;;;;;11.48;2.00;;;7.90;99.90;;;;;;4978597;28;20039;-74
2023/01/26 12:31:53;;;;;;;17.00;1.80;;;7.80;99.90;;;;;;4993359;28;20034;-73
2023/01/26 12:34:27;;;;;;;21.58;2.28;;;7.80;99.90;;;;;;5004011;28;20065;-74
2023/01/26 12:37:25;;;;;;;10.90;1.30;;;7.70;99.90;;;;;;5002594;28;20320;-73
2023/01/26 12:40:13;;;;;;;7.93;0.90;;;7.80;99.90;;;;;;4997077;28;20065;-74
2023/01/26 12:42:50;;;;;;;14.50;1.63;;;7.80;99.90;;;;;;5001653;28;20074;-74
2023/01/26 12:45:28;;;;;;;9.77;1.92;;;7.90;99.90;;;;;;5005575;28;20093;-73
2023/01/26 12:48:03;;;;;;;10.93;0.93;;;8.10;99.90;;;;;;5009581;28;20052;-74
2023/01/26 12:50:39;;;;;;;19.25;1.80;;;8.20;99.90;;;;;;5005404;28;20080;-74
2023/01/26 12:53:31;;;;;;;8.27;1.48;;;8.20;99.90;;;;;;5004821;28;20231;-74
2023/01/26 12:56:18;;;;;;;10.15;1.75;;;8.10;99.90;;;;;;4999647;28;20038;-75
2023/01/26 12:58:48;;;;;;;17.13;1.65;;;8.10;99.90;;;;;;5003234;28;20084;-75
2023/01/26 13:01:20;;;;;;;13.38;1.85;;;8.10;99.90;;;;;;5006660;28;20049;-75
2023/01/26 13:03:55;;;;;;;6.95;1.35;;;8.10;99.90;;;;;;5008181;28;20248;-74
2023/01/26 13:06:26;;;;;;;10.90;1.85;;;8.10;99.90;;;;;;5011215;28;20038;-74
2023/01/26 13:09:14;;;;;;;15.38;2.00;;;8.10;99.90;;;;;;4980891;28;20049;-75
2023/01/26 13:11:40;;;;;;;12.38;2.03;;;8.00;99.90;;;;;;4979990;28;20540;-73
2023/01/26 13:14:24;;;;;;;9.60;1.70;;;8.10;99.90;;;;;;4980237;28;20046;-74
2023/01/26 13:16:50;;;;;;;9.38;1.10;;;8.00;99.90;;;;;;4982076;28;20046;-74
2023/01/26 13:19:34;;;;;;;10.70;1.20;;;8.00;99.90;;;;;;4983337;28;20027;-74
2023/01/26 13:22:00;;;;;;;13.57;2.20;;;8.10;99.90;;;;;;4975345;28;20046;-74
2023/01/26 13:24:25;;;;;;;16.60;1.30;;;8.10;99.90;;;;;;4980520;28;20042;-74
2023/01/26 13:26:58;;;;;;;16.00;3.35;;;8.10;99.90;;;;;;4979296;28;20085;-74
2023/01/26 13:29:23;;;;;;;9.40;2.38;;;8.00;99.90;;;;;;4978972;28;20045;-72
2023/01/26 13:31:56;;;;;;;8.25;1.95;;;7.90;99.90;;;;;;4976602;28;20039;-74
2023/01/26 13:34:36;;;;;;;11.65;1.00;;;7.90;99.90;;;;;;4981547;28;20050;-74
2023/01/26 13:37:27;;;;;;;4.47;0.70;;;8.00;99.90;;;;;;4992202;28;20041;-73
2023/01/26 13:40:00;;;;;;;11.93;0.73;;;8.00;99.90;;;;;;5004824;28;20030;-75
2023/01/26 13:42:35;;;;;;;8.20;1.48;;;8.00;99.90;;;;;;5006827;28;20142;-73
2023/01/26 13:45:17;;;;;;;9.88;1.60;;;8.00;99.90;;;;;;5004738;28;20037;-74